Time;durP1;ratioP1;P1;durP2;ratioP2;P2;SDS_P1;SDS_P2;PMS_P1;PMS_P2;Temp;Humidity;BMP_temperature;BMP_pressure;BME280_temperature;BME280_humidity;BME280_pressure;Samples;Min_cycle;Max_cycle;Signal;HPM_P1;HPM_P2
2023/04/09 00:00:42;;;;;;;60.67;27.20;;;9.10;99.90;;;;;;4008609;29;20536;-87
2023/04/09 00:02:45;;;;;;;66.32;29.45;;;9.10;99.90;;;;;;4011429;29;20038;-87
2023/04/09 00:04:46;;;;;;;66.22;29.83;;;9.00;99.90;;;;;;4025507;29;20050;-87
2023/04/09 00:06:48;;;;;;;70.25;29.63;;;9.10;99.90;;;;;;4010269;29;20064;-88
2023/04/09 00:08:48;;;;;;;65.50;29.45;;;9.00;99.90;;;;;;4010504;29;20098;-87
2023/04/09 00:10:50;;;;;;;72.93;29.55;;;9.10;99.90;;;;;;4025861;29;20037;-87
2023/04/09 00:12:52;;;;;;;67.97;29.98;;;9.00;99.90;;;;;;4023339;29;20054;-85
2023/04/09 00:14:55;;;;;;;61.20;27.65;;;9.00;99.90;;;;;;4018889;29;20026;-86
2023/04/09 00:16:57;;;;;;;69.13;30.90;;;9.10;99.90;;;;;;4026251;29;20105;-86
2023/04/09 00:18:57;;;;;;;70.38;27.88;;;9.10;99.90;;;;;;4009848;29;20039;-86
2023/04/09 00:20:59;;;;;;;62.97;28.40;;;9.10;99.90;;;;;;4008858;29;20506;-85
2023/04/09 00:23:01;;;;;;;62.25;26.48;;;9.10;99.90;;;;;;4009316;29;20106;-86
2023/04/09 00:25:02;;;;;;;62.13;26.63;;;9.10;99.90;;;;;;4010452;29;20519;-86
2023/04/09 00:27:02;;;;;;;56.45;26.83;;;9.00;99.90;;;;;;3993715;29;20055;-86
2023/04/09 00:29:03;;;;;;;53.67;25.52;;;9.00;99.90;;;;;;4008822;29;20057;-86
2023/04/09 00:31:04;;;;;;;58.35;27.42;;;9.00;99.90;;;;;;4009489;29;20172;-86
2023/04/09 00:33:06;;;;;;;58.65;26.52;;;8.90;99.90;;;;;;4010121;29;20485;-87
2023/04/09 00:35:07;;;;;;;60.15;28.58;;;9.60;99.90;;;;;;4010740;29;20034;-87
2023/04/09 00:37:08;;;;;;;54.45;23.95;;;9.00;99.90;;;;;;3994037;29;20054;-87
2023/04/09 00:39:09;;;;;;;56.50;26.25;;;9.00;99.90;;;;;;4009688;29;20127;-86
2023/04/09 00:41:10;;;;;;;49.28;23.85;;;8.90;99.90;;;;;;4010480;29;20125;-86
2023/04/09 00:43:11;;;;;;;58.65;23.88;;;9.00;99.90;;;;;;4009894;29;20499;-86
2023/04/09 00:45:13;;;;;;;52.00;25.13;;;8.90;99.90;;;;;;4011067;29;20042;-86
2023/04/09 00:47:15;;;;;;;56.38;28.63;;;8.90;99.90;;;;;;4010345;29;20049;-86
2023/04/09 00:49:17;;;;;;;56.92;26.33;;;9.00;99.90;;;;;;4008714;29;20045;-87
2023/04/09 00:51:18;;;;;;;54.58;24.08;;;9.00;99.90;;;;;;4009301;29;20419;-87
2023/04/09 00:53:19;;;;;;;56.97;24.73;;;9.00;99.90;;;;;;4009160;29;20054;-87
2023/04/09 00:55:21;;;;;;;56.15;24.02;;;9.00;99.90;;;;;;4009810;29;20084;-87
2023/04/09 00:57:21;;;;;;;62.80;26.20;;;8.90;99.90;;;;;;4008883;29;20062;-87
2023/04/09 00:59:25;;;;;;;59.80;25.20;;;9.10;99.90;;;;;;4010223;29;20054;-87
2023/04/09 01:01:25;;;;;;;52.70;24.50;;;9.00;99.90;;;;;;4008506;29;20114;-87
2023/04/09 01:03:29;;;;;;;56.83;26.48;;;9.00;99.90;;;;;;4008914;29;20042;-87
2023/04/09 01:05:48;;;;;;;56.90;24.88;;;9.00;99.90;;;;;;4008309;29;20532;-87
2023/04/09 01:08:12;;;;;;;54.75;25.25;;;9.00;99.90;;;;;;4008776;29;20085;-87
2023/04/09 01:10:28;;;;;;;55.60;24.63;;;9.00;99.90;;;;;;4009111;29;20049;-87
2023/04/09 01:12:36;;;;;;;50.22;23.15;;;9.00;99.90;;;;;;4008980;29;20042;-86
2023/04/09 01:14:52;;;;;;;51.58;23.52;;;9.00;99.90;;;;;;4008899;29;20054;-87
2023/04/09 01:17:01;;;;;;;50.15;23.42;;;9.00;99.90;;;;;;4008993;29;20050;-86
2023/04/09 01:19:40;;;;;;;50.22;22.67;;;8.90;99.90;;;;;;3993320;29;20129;-87
2023/04/09 01:21:43;;;;;;;50.33;22.48;;;9.00;99.90;;;;;;4008381;29;20054;-87
2023/04/09 01:23:50;;;;;;;42.95;20.15;;;9.10;99.90;;;;;;3993561;29;20062;-86
2023/04/09 01:26:26;;;;;;;41.83;19.30;;;8.90;99.90;;;;;;4009067;29;20077;-86
2023/04/09 01:28:43;;;;;;;40.65;19.48;;;8.90;99.90;;;;;;4008119;29;20042;-86
2023/04/09 01:30:49;;;;;;;35.45;16.00;;;8.90;99.90;;;;;;4008959;29;20050;-86
2023/04/09 01:32:52;;;;;;;33.67;16.73;;;8.90;99.90;;;;;;4009928;29;20057;-86
2023/04/09 01:34:55;;;;;;;30.23;14.98;;;8.80;99.90;;;;;;4007847;29;20466;-87
2023/04/09 01:36:59;;;;;;;32.88;15.73;;;9.10;99.90;;;;;;4008659;29;20056;-86
2023/04/09 01:39:01;;;;;;;28.85;13.98;;;9.00;99.90;;;;;;4008493;29;20054;-87
2023/04/09 01:41:06;;;;;;;36.65;16.27;;;9.00;99.90;;;;;;3992316;29;20050;-87
2023/04/09 01:43:07;;;;;;;33.95;16.30;;;8.90;99.90;;;;;;4008495;29;20661;-88
2023/04/09 01:45:10;;;;;;;33.55;15.88;;;8.90;99.90;;;;;;4009216;29;20050;-86
2023/04/09 01:47:12;;;;;;;37.05;15.65;;;8.80;99.90;;;;;;3992833;29;20062;-86
2023/04/09 01:49:14;;;;;;;31.60;15.75;;;9.00;99.90;;;;;;4009967;29;20523;-86
2023/04/09 01:51:15;;;;;;;39.13;17.38;;;9.10;99.90;;;;;;4007920;29;20053;-86
2023/04/09 01:53:16;;;;;;;32.05;16.00;;;8.80;99.90;;;;;;4023618;29;20081;-86
2023/04/09 01:55:17;;;;;;;36.45;15.48;;;8.90;99.90;;;;;;4023892;29;20422;-86
2023/04/09 01:57:18;;;;;;;36.58;15.90;;;8.80;99.90;;;;;;4019204;29;20081;-86
2023/04/09 01:59:20;;;;;;;34.30;16.33;;;8.80;99.90;;;;;;4009078;29;20058;-86
2023/04/09 02:01:30;;;;;;;33.03;14.95;;;8.80;99.90;;;;;;4010721;29;20069;-87
2023/04/09 02:03:45;;;;;;;30.17;16.48;;;8.80;99.90;;;;;;4010587;29;20056;-86
2023/04/09 02:06:00;;;;;;;31.42;14.45;;;8.80;99.90;;;;;;4001798;29;20082;-86
2023/04/09 02:08:02;;;;;;;29.13;15.10;;;8.80;99.90;;;;;;3993860;29;20062;-86
2023/04/09 02:10:07;;;;;;;28.90;14.30;;;8.70;99.90;;;;;;3993884;29;20050;-86
2023/04/09 02:12:13;;;;;;;29.35;13.38;;;8.70;99.90;;;;;;3992675;29;20428;-87
2023/04/09 02:14:15;;;;;;;32.60;15.57;;;8.70;99.90;;;;;;3997240;29;20099;-86
2023/04/09 02:16:16;;;;;;;35.15;16.08;;;8.70;99.90;;;;;;4008282;29;20463;-86
2023/04/09 02:18:24;;;;;;;30.80;14.65;;;8.70;99.90;;;;;;4009159;29;20065;-87
2023/04/09 02:20:25;;;;;;;30.35;14.38;;;8.70;99.90;;;;;;4010139;29;20499;-86
2023/04/09 02:22:25;;;;;;;31.52;14.30;;;8.70;99.90;;;;;;4008126;29;20136;-87
2023/04/09 02:24:27;;;;;;;28.55;14.27;;;8.70;99.90;;;;;;4009438;29;20642;-86
2023/04/09 02:26:29;;;;;;;30.45;13.40;;;8.80;99.90;;;;;;3993221;29;20126;-86
2023/04/09 02:28:31;;;;;;;31.58;14.35;;;8.80;99.90;;;;;;4009016;29;20054;-86
2023/04/09 02:30:31;;;;;;;31.05;13.38;;;8.70;99.90;;;;;;3993127;29;20133;-85
2023/04/09 02:32:34;;;;;;;29.13;14.98;;;8.90;99.90;;;;;;4007636;29;20054;-86
2023/04/09 02:34:36;;;;;;;28.98;15.35;;;8.70;99.90;;;;;;4008926;29;20110;-86
2023/04/09 02:36:38;;;;;;;29.55;13.90;;;8.70;99.90;;;;;;4007383;29;20062;-85
2023/04/09 02:38:41;;;;;;;27.73;14.82;;;8.70;99.90;;;;;;4009207;29;20046;-86
2023/04/09 02:40:43;;;;;;;28.75;13.77;;;9.20;99.90;;;;;;4007920;29;20046;-86
2023/04/09 02:42:45;;;;;;;33.13;14.77;;;8.80;99.90;;;;;;4009186;29;20050;-86
2023/04/09 02:44:45;;;;;;;27.23;13.57;;;8.70;99.90;;;;;;4008314;29;20046;-86
2023/04/09 02:46:47;;;;;;;30.77;14.23;;;8.60;99.90;;;;;;4008393;29;20076;-86
2023/04/09 02:48:48;;;;;;;27.55;13.35;;;8.70;99.90;;;;;;4009093;29;20129;-87
2023/04/09 02:50:49;;;;;;;28.98;14.20;;;8.60;99.90;;;;;;4008341;29;20464;-86
2023/04/09 02:52:50;;;;;;;28.80;13.15;;;8.60;99.90;;;;;;4008799;29;20124;-86
2023/04/09 02:54:52;;;;;;;29.15;15.13;;;8.60;99.90;;;;;;4007961;29;20046;-87
2023/04/09 02:56:52;;;;;;;31.80;13.95;;;8.60;99.90;;;;;;4007006;29;20050;-86
2023/04/09 02:58:54;;;;;;;30.48;13.27;;;8.70;99.90;;;;;;4006916;29;20042;-86
2023/04/09 03:00:55;;;;;;;31.13;14.13;;;8.60;99.90;;;;;;4013669;29;20133;-86
2023/04/09 03:02:56;;;;;;;34.15;15.80;;;8.60;99.90;;;;;;4023777;29;20041;-86
2023/04/09 03:04:57;;;;;;;28.20;13.75;;;8.60;99.90;;;;;;4023278;29;20050;-86
2023/04/09 03:06:58;;;;;;;32.15;14.00;;;;;;;;;;4017567;29;20025;-86
2023/04/09 03:08:59;;;;;;;34.20;15.05;;;8.60;99.90;;;;;;4008348;29;20053;-86
2023/04/09 03:11:00;;;;;;;29.05;14.10;;;8.50;99.90;;;;;;4009290;29;20045;-86
2023/04/09 03:13:00;;;;;;;27.15;13.57;;;8.60;99.90;;;;;;4009002;29;20042;-86
2023/04/09 03:15:01;;;;;;;32.60;14.88;;;8.50;99.90;;;;;;4009092;29;20077;-86
2023/04/09 03:17:02;;;;;;;29.05;14.88;;;8.50;99.90;;;;;;4009569;29;20050;-86
2023/04/09 03:19:03;;;;;;;31.52;15.82;;;8.50;99.90;;;;;;4007871;29;20109;-86
2023/04/09 03:21:08;;;;;;;32.95;15.43;;;8.50;99.90;;;;;;4007819;29;20157;-86
2023/04/09 03:23:10;;;;;;;33.92;14.82;;;8.50;99.90;;;;;;3992356;29;20516;-86
2023/04/09 03:25:11;;;;;;;33.92;17.08;;;8.50;99.90;;;;;;4009994;29;20105;-86
2023/04/09 03:27:13;;;;;;;34.13;15.45;;;8.50;99.90;;;;;;4008592;29;20079;-86
2023/04/09 03:29:15;;;;;;;33.75;16.13;;;8.50;99.90;;;;;;4009038;29;20098;-87
2023/04/09 03:31:16;;;;;;;37.28;15.57;;;8.50;99.90;;;;;;4007404;29;20061;-86
2023/04/09 03:33:18;;;;;;;31.52;15.07;;;8.50;99.90;;;;;;4008011;29;20149;-86
2023/04/09 03:35:19;;;;;;;31.73;14.52;;;8.40;99.90;;;;;;4009583;29;20544;-86
2023/04/09 03:37:22;;;;;;;31.45;15.27;;;8.50;99.90;;;;;;4008026;29;20041;-86
2023/04/09 03:39:22;;;;;;;35.20;15.98;;;8.50;99.90;;;;;;3993131;29;20133;-86
2023/04/09 03:41:24;;;;;;;34.75;15.57;;;8.50;99.90;;;;;;3991963;29;20049;-86
2023/04/09 03:43:26;;;;;;;29.15;14.68;;;8.50;99.90;;;;;;4008657;29;20419;-86
2023/04/09 03:45:28;;;;;;;33.22;15.40;;;8.40;99.90;;;;;;4008789;29;20045;-87
2023/04/09 03:47:29;;;;;;;31.65;14.85;;;8.80;99.90;;;;;;4008543;29;20053;-87
2023/04/09 03:49:30;;;;;;;32.85;14.70;;;8.40;99.90;;;;;;4013611;29;20166;-87
2023/04/09 03:51:31;;;;;;;36.20;16.25;;;8.40;99.90;;;;;;4021540;29;20056;-86
2023/04/09 03:53:32;;;;;;;29.83;14.23;;;8.40;99.90;;;;;;4022591;29;20050;-87
2023/04/09 03:55:34;;;;;;;30.80;14.43;;;8.40;99.90;;;;;;4016782;29;20102;-87
2023/04/09 03:57:35;;;;;;;33.95;15.57;;;8.40;99.90;;;;;;4007274;29;20062;-86
2023/04/09 03:59:36;;;;;;;32.00;15.15;;;8.40;99.90;;;;;;3994320;29;20122;-86
2023/04/09 04:01:37;;;;;;;32.60;14.70;;;8.30;99.90;;;;;;4010581;29;20049;-87
2023/04/09 04:03:38;;;;;;;29.00;14.68;;;8.40;99.90;;;;;;4011123;29;20046;-87
2023/04/09 04:05:39;;;;;;;33.45;15.88;;;8.50;99.90;;;;;;4010642;29;20064;-86
2023/04/09 04:07:42;;;;;;;33.33;15.80;;;8.00;99.90;;;;;;4012719;29;20046;-86
2023/04/09 04:09:44;;;;;;;30.08;14.98;;;8.30;99.90;;;;;;3994404;29;20061;-86
2023/04/09 04:11:46;;;;;;;30.67;14.30;;;8.30;99.90;;;;;;4006576;29;20050;-87
2023/04/09 04:13:47;;;;;;;34.13;16.02;;;8.30;99.90;;;;;;4007362;29;20038;-86
2023/04/09 04:15:47;;;;;;;33.45;14.57;;;8.30;99.90;;;;;;4010381;29;20118;-86
2023/04/09 04:17:48;;;;;;;30.70;14.32;;;8.30;99.90;;;;;;4011753;29;20042;-87
2023/04/09 04:19:50;;;;;;;37.22;16.40;;;8.30;99.90;;;;;;3994283;29;20051;-87
2023/04/09 04:21:51;;;;;;;32.47;15.73;;;8.30;99.90;;;;;;4011559;29;20491;-87
2023/04/09 04:23:52;;;;;;;34.20;14.82;;;8.30;99.90;;;;;;4008262;29;20077;-87
2023/04/09 04:25:53;;;;;;;31.48;15.05;;;8.40;99.90;;;;;;4009573;29;20053;-87
2023/04/09 04:27:55;;;;;;;30.60;16.30;;;8.30;99.90;;;;;;4009535;29;20550;-87
2023/04/09 04:30:00;;;;;;;30.52;14.88;;;8.30;99.90;;;;;;3993170;29;20078;-87
2023/04/09 04:32:01;;;;;;;28.08;15.07;;;8.40;99.90;;;;;;4009521;29;20042;-86
2023/04/09 04:34:02;;;;;;;31.27;15.07;;;8.40;99.90;;;;;;3995057;29;20164;-87
2023/04/09 04:36:05;;;;;;;29.63;14.60;;;7.70;99.90;;;;;;4008113;29;20140;-87
2023/04/09 04:38:06;;;;;;;30.75;14.40;;;8.40;99.90;;;;;;3995593;29;20403;-87
2023/04/09 04:40:07;;;;;;;25.63;14.07;;;8.30;99.90;;;;;;3996295;29;20117;-86
2023/04/09 04:42:08;;;;;;;27.92;13.85;;;8.30;99.90;;;;;;4010103;29;20058;-86
2023/04/09 04:44:09;;;;;;;31.02;15.07;;;8.30;99.90;;;;;;3996174;29;20385;-86
2023/04/09 04:46:12;;;;;;;31.95;14.65;;;8.30;99.90;;;;;;4010463;29;20625;-86
2023/04/09 04:48:13;;;;;;;26.00;13.73;;;8.30;99.90;;;;;;3997099;29;20065;-87
2023/04/09 04:50:15;;;;;;;31.50;13.65;;;8.30;99.90;;;;;;4019497;29;20116;-86
2023/04/09 04:52:16;;;;;;;26.00;13.77;;;8.40;99.90;;;;;;4026641;29;20474;-86
2023/04/09 04:54:17;;;;;;;27.30;13.77;;;8.30;99.90;;;;;;4026805;29;20053;-87
2023/04/09 04:56:20;;;;;;;29.85;14.82;;;8.40;99.90;;;;;;4019458;29;20042;-86
2023/04/09 04:58:21;;;;;;;32.38;14.02;;;8.30;99.90;;;;;;4010168;29;20086;-86
2023/04/09 05:00:24;;;;;;;31.63;15.02;;;8.40;99.90;;;;;;4014403;29;20049;-85
2023/04/09 05:02:26;;;;;;;30.52;14.75;;;8.40;99.90;;;;;;4015089;29;20062;-86
2023/04/09 05:04:27;;;;;;;30.27;14.75;;;8.30;99.90;;;;;;4000157;29;20121;-84
2023/04/09 05:06:30;;;;;;;27.13;13.52;;;8.30;99.90;;;;;;4011961;29;20062;-86
2023/04/09 05:08:32;;;;;;;29.23;12.05;;;7.30;99.90;;;;;;4026237;29;20066;-86
2023/04/09 05:10:32;;;;;;;27.35;13.07;;;8.40;99.90;;;;;;4027176;29;20038;-86
2023/04/09 05:12:33;;;;;;;54.67;14.93;;;8.50;99.90;;;;;;4012087;29;20108;-85
2023/04/09 05:14:34;;;;;;;26.25;13.18;;;8.40;99.90;;;;;;4010098;29;20051;-85
2023/04/09 05:16:35;;;;;;;29.98;14.35;;;8.30;99.90;;;;;;4022205;29;20075;-86
2023/04/09 05:18:35;;;;;;;26.60;12.68;;;8.40;99.90;;;;;;3995517;29;20038;-85
2023/04/09 05:20:38;;;;;;;25.48;12.77;;;8.40;99.90;;;;;;4011431;29;20042;-85
2023/04/09 05:22:40;;;;;;;32.08;14.15;;;8.40;99.90;;;;;;4010707;29;20037;-86
2023/04/09 05:24:41;;;;;;;30.73;13.40;;;8.40;99.90;;;;;;3994980;29;20199;-85
2023/04/09 05:26:41;;;;;;;32.55;16.15;;;8.40;99.90;;;;;;4011910;29;20491;-85
2023/04/09 05:28:43;;;;;;;30.75;14.77;;;8.40;99.90;;;;;;3995045;29;20054;-85
2023/04/09 05:30:48;;;;;;;29.42;14.30;;;8.40;99.90;;;;;;3994498;29;20087;-86
2023/04/09 05:32:49;;;;;;;29.58;14.05;;;8.40;99.90;;;;;;4010899;29;20111;-86
2023/04/09 05:34:50;;;;;;;29.83;14.48;;;8.40;99.90;;;;;;3993051;29;20054;-87
2023/04/09 05:36:51;;;;;;;34.20;15.25;;;8.90;99.90;;;;;;4009290;29;20591;-86
2023/04/09 05:38:52;;;;;;;33.15;15.88;;;8.40;99.90;;;;;;4008612;29;20042;-85
2023/04/09 05:40:54;;;;;;;30.10;16.13;;;8.40;99.90;;;;;;3993777;29;20138;-86
2023/04/09 05:42:55;;;;;;;37.55;18.05;;;8.40;99.90;;;;;;4008822;29;20154;-85
2023/04/09 05:44:56;;;;;;;36.00;16.60;;;8.40;99.90;;;;;;4011728;29;20488;-86
2023/04/09 05:46:57;;;;;;;33.15;16.77;;;8.40;99.90;;;;;;4010587;29;20053;-86
2023/04/09 05:48:58;;;;;;;35.58;17.52;;;8.30;99.90;;;;;;3992745;29;20066;-86
2023/04/09 05:50:59;;;;;;;38.05;18.42;;;8.30;99.90;;;;;;4010509;29;20170;-85
2023/04/09 05:53:00;;;;;;;42.15;17.27;;;8.40;99.90;;;;;;3994438;29;20050;-85
2023/04/09 05:55:02;;;;;;;45.60;19.73;;;8.40;99.90;;;;;;3994240;29;20046;-85
2023/04/09 05:57:03;;;;;;;33.13;17.13;;;8.40;99.90;;;;;;3994515;29;20046;-86
2023/04/09 05:59:04;;;;;;;40.78;19.05;;;8.50;99.90;;;;;;3977787;29;20056;-86
2023/04/09 06:01:05;;;;;;;39.15;19.80;;;8.50;99.90;;;;;;4008567;29;20422;-86
2023/04/09 06:03:05;;;;;;;41.47;19.02;;;8.40;99.90;;;;;;3993659;29;20054;-86
2023/04/09 06:05:07;;;;;;;38.53;18.58;;;8.40;99.90;;;;;;4008828;29;20417;-85
2023/04/09 06:07:08;;;;;;;40.45;18.15;;;8.40;99.90;;;;;;3992925;29;20050;-85
2023/04/09 06:09:09;;;;;;;41.55;18.75;;;8.50;99.90;;;;;;4009364;29;20544;-86
2023/04/09 06:11:11;;;;;;;42.88;21.60;;;8.40;99.90;;;;;;4009384;29;20046;-86
2023/04/09 06:13:12;;;;;;;40.55;19.10;;;8.60;99.90;;;;;;3992566;29;20506;-86
2023/04/09 06:15:13;;;;;;;44.42;19.33;;;8.40;99.90;;;;;;4007745;29;20057;-86
2023/04/09 06:17:15;;;;;;;40.17;19.38;;;8.50;99.90;;;;;;4008869;29;20452;-86
2023/04/09 06:19:16;;;;;;;41.65;18.38;;;8.50;99.90;;;;;;4009493;29;20038;-86
2023/04/09 06:21:19;;;;;;;36.42;16.90;;;8.40;99.90;;;;;;4009010;29;20050;-86
2023/04/09 06:23:21;;;;;;;38.25;18.33;;;8.50;99.90;;;;;;4010335;29;20419;-86
2023/04/09 06:25:22;;;;;;;34.03;16.42;;;8.70;99.90;;;;;;4003602;29;20057;-85
2023/04/09 06:27:23;;;;;;;34.90;17.77;;;8.50;99.90;;;;;;3994446;29;20054;-87
2023/04/09 06:29:24;;;;;;;37.05;17.77;;;8.40;99.90;;;;;;3994948;29;20130;-87
2023/04/09 06:31:25;;;;;;;33.97;16.83;;;8.50;99.90;;;;;;3993077;29;20054;-86
2023/04/09 06:33:27;;;;;;;29.15;15.07;;;8.40;99.90;;;;;;3995811;29;20531;-86
2023/04/09 06:35:27;;;;;;;32.78;16.17;;;8.50;99.90;;;;;;4004688;29;20041;-86
2023/04/09 06:37:28;;;;;;;35.63;15.85;;;8.40;99.90;;;;;;3993102;29;20503;-86
2023/04/09 06:39:31;;;;;;;32.80;16.25;;;8.50;99.90;;;;;;4009165;29;20500;-86
2023/04/09 06:41:32;;;;;;;36.60;16.50;;;8.50;99.90;;;;;;4009046;29;20107;-86
2023/04/09 06:43:35;;;;;;;30.38;15.18;;;8.50;99.90;;;;;;4009441;29;20093;-85
2023/04/09 06:45:37;;;;;;;33.92;17.15;;;8.50;99.90;;;;;;3993485;29;20413;-85
2023/04/09 06:47:38;;;;;;;34.03;15.77;;;8.40;99.90;;;;;;3994227;29;20062;-86
2023/04/09 06:49:40;;;;;;;38.63;16.90;;;8.40;99.90;;;;;;4013705;29;20102;-86
2023/04/09 06:51:41;;;;;;;34.60;17.88;;;8.50;99.90;;;;;;4011497;29;20046;-86
2023/04/09 06:53:46;;;;;;;34.72;15.85;;;8.40;99.90;;;;;;4010379;29;20046;-86
2023/04/09 06:55:47;;;;;;;35.13;15.65;;;8.40;99.90;;;;;;4008661;29;20062;-85
2023/04/09 06:57:48;;;;;;;36.47;16.80;;;8.40;99.90;;;;;;3993322;29;20054;-86
2023/04/09 06:59:52;;;;;;;34.92;15.38;;;8.40;99.90;;;;;;4008597;29;20042;-86
2023/04/09 07:01:53;;;;;;;38.28;17.05;;;8.40;99.90;;;;;;4009610;29;20041;-86
2023/04/09 07:03:58;;;;;;;39.47;16.73;;;8.40;99.90;;;;;;4006936;29;20046;-86
2023/04/09 07:05:59;;;;;;;39.60;17.40;;;8.40;99.90;;;;;;3992306;29;20046;-86
2023/04/09 07:08:00;;;;;;;35.97;17.80;;;8.40;99.90;;;;;;4008314;29;20411;-85
2023/04/09 07:10:02;;;;;;;38.45;18.42;;;8.50;99.90;;;;;;3991630;29;20051;-86
2023/04/09 07:12:04;;;;;;;43.55;19.27;;;9.30;99.90;;;;;;4005225;29;20046;-87
2023/04/09 07:14:05;;;;;;;40.17;20.27;;;8.50;99.90;;;;;;4014899;29;20057;-85
2023/04/09 07:16:07;;;;;;;51.38;21.90;;;8.00;99.90;;;;;;4016114;29;20049;-87
2023/04/09 07:18:15;;;;;;;42.97;20.88;;;8.50;99.90;;;;;;4036243;29;20049;-87
2023/04/09 07:20:17;;;;;;;45.90;20.75;;;8.50;99.90;;;;;;4014180;29;20073;-87
2023/04/09 07:22:22;;;;;;;41.97;18.77;;;7.70;99.90;;;;;;4013977;29;20022;-86
2023/04/09 07:24:22;;;;;;;40.95;19.98;;;8.30;99.90;;;;;;4005965;29;20042;-86
2023/04/09 07:26:28;;;;;;;37.80;18.35;;;8.60;99.90;;;;;;4003202;29;20099;-85
2023/04/09 07:28:30;;;;;;;40.83;19.00;;;8.70;99.90;;;;;;4002649;29;20125;-85
2023/04/09 07:30:31;;;;;;;36.70;17.15;;;8.70;99.90;;;;;;4009019;29;20061;-85
2023/04/09 07:32:33;;;;;;;33.00;16.70;;;8.70;99.90;;;;;;4009346;29;20465;-86
2023/04/09 07:34:34;;;;;;;35.10;16.48;;;8.80;99.90;;;;;;4011158;29;20074;-86
2023/04/09 07:36:35;;;;;;;38.72;16.85;;;8.70;99.90;;;;;;4013203;29;20399;-85
2023/04/09 07:38:35;;;;;;;35.35;16.17;;;8.70;99.90;;;;;;4012160;29;20057;-86
2023/04/09 07:40:37;;;;;;;30.85;16.23;;;8.70;99.90;;;;;;4012935;29;20090;-86
2023/04/09 07:42:39;;;;;;;32.22;16.52;;;8.80;99.90;;;;;;3996193;29;20058;-86
2023/04/09 07:44:40;;;;;;;36.78;15.93;;;8.70;99.90;;;;;;4009725;29;20053;-86
2023/04/09 07:46:42;;;;;;;34.03;16.95;;;9.00;99.90;;;;;;4002854;29;20050;-85
2023/04/09 07:48:43;;;;;;;33.80;15.82;;;9.10;99.90;;;;;;4013417;29;20050;-85
2023/04/09 07:50:47;;;;;;;28.67;14.52;;;9.20;99.90;;;;;;3997714;29;20050;-87
2023/04/09 07:52:47;;;;;;;29.65;16.10;;;9.30;99.90;;;;;;3996930;29;20042;-86
2023/04/09 07:54:48;;;;;;;32.13;15.93;;;9.40;99.90;;;;;;3981882;29;20054;-86
2023/04/09 07:56:49;;;;;;;33.92;16.55;;;9.40;99.90;;;;;;3997139;29;20050;-86
2023/04/09 07:58:50;;;;;;;36.35;17.88;;;9.40;99.90;;;;;;4000025;29;20050;-86
2023/04/09 08:00:51;;;;;;;34.67;16.73;;;9.40;99.90;;;;;;3997090;29;20478;-85
2023/04/09 08:02:53;;;;;;;35.10;17.92;;;9.40;99.90;;;;;;4006222;29;20483;-85
2023/04/09 08:04:53;;;;;;;31.63;16.33;;;9.40;99.90;;;;;;4013734;29;20069;-84
2023/04/09 08:06:54;;;;;;;35.28;15.95;;;9.50;99.90;;;;;;4011845;29;20065;-86
2023/04/09 08:08:56;;;;;;;34.72;17.50;;;9.50;99.90;;;;;;4010560;29;20026;-86
2023/04/09 08:10:57;;;;;;;34.08;17.23;;;9.60;99.90;;;;;;4012584;29;20507;-86
2023/04/09 08:12:58;;;;;;;35.10;16.42;;;9.60;99.90;;;;;;3997178;29;20062;-85
2023/04/09 08:15:06;;;;;;;29.80;14.43;;;9.50;99.90;;;;;;3998082;29;20053;-85
2023/04/09 08:17:07;;;;;;;31.47;16.50;;;8.80;99.90;;;;;;3997497;29;20090;-85
2023/04/09 08:19:09;;;;;;;34.08;15.35;;;9.40;99.90;;;;;;4012278;29;20118;-85
2023/04/09 08:21:10;;;;;;;35.53;16.35;;;9.40;99.90;;;;;;3996214;29;20389;-85
2023/04/09 08:23:11;;;;;;;35.72;16.58;;;9.40;99.90;;;;;;3998451;29;20087;-85
2023/04/09 08:25:13;;;;;;;31.55;15.13;;;8.40;99.90;;;;;;4008384;29;20057;-85
2023/04/09 08:27:14;;;;;;;30.90;14.85;;;9.50;99.90;;;;;;3997471;29;20428;-84
2023/04/09 08:29:15;;;;;;;31.83;15.07;;;8.40;99.90;;;;;;4001142;29;20122;-85
2023/04/09 08:31:17;;;;;;;34.75;15.85;;;9.60;99.90;;;;;;3998115;29;20050;-85
2023/04/09 08:33:19;;;;;;;30.23;13.73;;;9.70;99.90;;;;;;3998387;29;20065;-86
2023/04/09 08:35:27;;;;;;;32.28;14.50;;;9.70;99.90;;;;;;4006870;29;20532;-84
2023/04/09 08:37:30;;;;;;;29.60;14.50;;;9.70;99.90;;;;;;4014493;29;20048;-85
2023/04/09 08:39:32;;;;;;;29.38;15.07;;;9.70;99.90;;;;;;4014188;29;20411;-85
2023/04/09 08:41:35;;;;;;;36.35;16.25;;;9.80;99.90;;;;;;4013479;29;20460;-85
2023/04/09 08:43:37;;;;;;;30.08;14.65;;;9.90;99.90;;;;;;3997153;29;20077;-85
2023/04/09 08:45:41;;;;;;;33.00;15.73;;;9.90;99.90;;;;;;4012136;29;20093;-85
2023/04/09 08:47:44;;;;;;;31.48;14.98;;;10.00;99.90;;;;;;3992677;29;20128;-85
2023/04/09 08:49:47;;;;;;;26.70;13.68;;;9.90;99.90;;;;;;4010252;29;20053;-86
2023/04/09 08:51:49;;;;;;;27.38;14.75;;;10.00;99.90;;;;;;4011710;29;20121;-85
2023/04/09 08:54:00;;;;;;;33.95;15.10;;;10.10;99.90;;;;;;3996354;29;20058;-85
2023/04/09 08:56:03;;;;;;;33.15;14.25;;;10.10;99.90;;;;;;3996772;29;20130;-85
2023/04/09 08:58:09;;;;;;;30.20;14.90;;;10.00;99.90;;;;;;4011910;29;20121;-85
2023/04/09 09:00:11;;;;;;;28.98;14.77;;;9.70;99.90;;;;;;4011989;29;20054;-85
2023/04/09 09:02:12;;;;;;;30.15;14.32;;;10.30;99.90;;;;;;4011548;29;20053;-85
2023/04/09 09:04:12;;;;;;;32.08;15.02;;;10.30;99.90;;;;;;3998193;29;20057;-85
2023/04/09 09:06:21;;;;;;;31.70;15.52;;;10.30;99.90;;;;;;4025130;29;20049;-85
2023/04/09 09:08:25;;;;;;;33.25;15.35;;;10.40;99.90;;;;;;4026856;29;20030;-84
2023/04/09 09:10:41;;;;;;;30.02;14.07;;;10.40;99.90;;;;;;4026777;29;20049;-85
2023/04/09 09:12:44;;;;;;;26.83;14.32;;;10.50;99.90;;;;;;4026467;29;20042;-84
2023/04/09 09:14:51;;;;;;;30.00;15.27;;;10.40;99.90;;;;;;4026105;29;20037;-85
2023/04/09 09:16:54;;;;;;;27.98;13.23;;;10.50;99.90;;;;;;4013615;29;20050;-85
2023/04/09 09:18:55;;;;;;;31.92;16.58;;;10.70;99.90;;;;;;4014446;29;20056;-85
2023/04/09 09:21:11;;;;;;;26.25;12.82;;;10.80;99.90;;;;;;4013448;29;20049;-86
2023/04/09 09:23:12;;;;;;;26.75;12.95;;;10.90;99.90;;;;;;4014286;29;20055;-86
2023/04/09 09:25:21;;;;;;;29.77;13.82;;;10.90;99.90;;;;;;4018398;29;20062;-86
2023/04/09 09:27:35;;;;;;;28.30;13.38;;;11.00;99.90;;;;;;3997454;29;20046;-85
2023/04/09 09:29:46;;;;;;;26.08;12.98;;;10.80;99.90;;;;;;4010472;29;20129;-86
2023/04/09 09:31:48;;;;;;;26.90;13.18;;;10.90;99.90;;;;;;4011360;29;20109;-85
2023/04/09 09:33:50;;;;;;;30.67;14.48;;;10.90;99.90;;;;;;4010874;29;20048;-86
2023/04/09 09:35:53;;;;;;;28.63;14.57;;;11.00;99.90;;;;;;4010265;29;20041;-84
2023/04/09 09:38:03;;;;;;;28.90;12.73;;;11.10;99.90;;;;;;4009288;29;20053;-85
2023/04/09 09:40:04;;;;;;;31.60;14.75;;;11.10;99.90;;;;;;4007038;29;20056;-85
2023/04/09 09:42:08;;;;;;;30.70;14.70;;;11.10;99.90;;;;;;3995268;29;20055;-85
2023/04/09 09:44:11;;;;;;;29.40;14.88;;;11.20;99.90;;;;;;3987306;29;20065;-86
2023/04/09 09:46:12;;;;;;;31.25;15.00;;;11.20;99.90;;;;;;3993815;29;20061;-86
2023/04/09 09:48:14;;;;;;;27.83;13.95;;;11.20;99.90;;;;;;3996176;29;20496;-85
2023/04/09 09:50:15;;;;;;;25.08;13.38;;;11.20;99.90;;;;;;3994354;29;20866;-85
2023/04/09 09:52:36;;;;;;;27.60;13.48;;;11.20;99.90;;;;;;3996153;29;20057;-85
2023/04/09 09:54:42;;;;;;;24.85;14.20;;;11.30;99.90;;;;;;3998643;29;20035;-85
2023/04/09 09:56:59;;;;;;;26.10;13.27;;;11.40;99.90;;;;;;3997720;29;20058;-85
2023/04/09 09:59:29;;;;;;;24.77;13.45;;;11.50;99.90;;;;;;3998970;29;20115;-86
2023/04/09 10:01:32;;;;;;;24.60;12.82;;;11.50;99.90;;;;;;4006372;29;20423;-86
2023/04/09 10:03:43;;;;;;;28.17;13.48;;;11.50;99.90;;;;;;3987497;29;20547;-85
2023/04/09 10:05:52;;;;;;;26.60;13.27;;;11.60;99.90;;;;;;4012831;29;20140;-85
2023/04/09 10:07:59;;;;;;;27.60;13.43;;;11.70;99.90;;;;;;4026141;29;20054;-86
2023/04/09 10:10:08;;;;;;;26.50;14.80;;;11.60;99.90;;;;;;4011779;29;20090;-86
2023/04/09 10:12:17;;;;;;;30.05;13.85;;;11.70;99.90;;;;;;4012125;29;20035;-84
2023/04/09 10:14:18;;;;;;;27.60;14.43;;;11.70;99.90;;;;;;4016746;29;20054;-85
2023/04/09 10:16:21;;;;;;;31.95;15.77;;;11.90;99.90;;;;;;4001001;29;20439;-86
2023/04/09 10:18:23;;;;;;;26.05;13.65;;;12.00;99.90;;;;;;3998517;29;20046;-85
2023/04/09 10:20:33;;;;;;;28.73;14.88;;;12.20;99.90;;;;;;4014515;29;20133;-84
2023/04/09 10:22:35;;;;;;;27.17;15.50;;;12.60;99.90;;;;;;4010688;29;20050;-86
2023/04/09 10:24:36;;;;;;;26.23;14.63;;;12.80;99.90;;;;;;4010752;29;20539;-86
2023/04/09 10:26:40;;;;;;;25.83;14.68;;;12.70;99.90;;;;;;4008527;29;20069;-85
2023/04/09 10:28:42;;;;;;;31.45;16.50;;;12.70;99.90;;;;;;4000817;29;20046;-84
2023/04/09 10:30:43;;;;;;;31.55;15.50;;;12.70;99.90;;;;;;4005874;29;20053;-85